International Virtual Aviation Organisation

Russian Federation and Kazakhstan MCD

 

Карточка аэропорта USHH

Внимание!
Информация на этой странице в стадии наполнения.
Если вы не увидели какой-то информации, или заметили неточность - пожалуйста сообщите нам!
Спасибо!
Команда RU-STAFF
Название аэропортаХанты-Мансийск
Название аэропорта (англ.)Khanty-Mansiysk
Превышение141 ft. (43 m.)
Координаты61°1.7039999999999', 69°5.1599999999999'
Высота перехода800m
Эшелон переходаFL050
Коды ответчика5150-5177
Зона ОрВДТюмень РПИ (USTV)
Данные METARUSHH 080300Z 05002MPS 9999 -SN BKN023 M09/M11 Q1009 R06/490333 TEMPO 2000 SN BKN007
Проноз погоды (TAF)USHH 080153Z 0803/0903 04003G08MPS 9999 BKN016 TEMPO 0803/0815 1500 SN BR BKN004 BKN016 BECMG 0806/0808 16003G08MPS FM081500 18006G13MPS 6000 -SN BKN005 OVC016 TEMPO 0815/0903 2500 -SN BR BKN003 OVC012 BECMG 0820/0822 23006G13MPS
NOTAMshow/hide NOTAM
AWOS   TABLE

Информация о ВПП

ВПП Длина ВПП (м.) Покрытие Курс ВПП Частота ILS
062800Асфальтобетон58111.9
242800Асфальтобетон238110.1

Диспетчерские позиции

Позывной Наименование органа УВД Частота
USHH_R_APPХантым-Круг120.4
USHH_TWRХантым-Вышка118.1



Спутниковое изображение